Time;durP1;ratioP1;P1;durP2;ratioP2;P2;SDS_P1;SDS_P2;PMS_P1;PMS_P2;Temp;Humidity;BMP_temperature;BMP_pressure;BME280_temperature;BME280_humidity;BME280_pressure;Samples;Min_cycle;Max_cycle;Signal;HPM_P1;HPM_P2
2022/01/18 00:00:40;;;;;;;11.30;2.27;;;;;;;4.60;90.83;102634.31;5085305;28;20294;-77
2022/01/18 00:03:06;;;;;;;13.90;2.73;;;;;;;4.54;91.63;102603.03;5085893;28;20226;-78
2022/01/18 00:05:33;;;;;;;13.17;3.20;;;;;;;4.45;92.22;102581.94;5085460;28;20207;-78
2022/01/18 00:08:00;;;;;;;19.37;3.10;;;;;;;4.38;92.56;102576.53;5085574;28;20232;-79
2022/01/18 00:10:29;;;;;;;10.67;2.50;;;;;;;4.35;92.84;102566.06;5085265;28;20197;-80
2022/01/18 00:15:43;;;;;;;16.97;3.07;;;;;;;4.33;93.42;102557.34;5082629;28;20199;-77
2022/01/18 00:18:13;;;;;;;15.40;3.10;;;;;;;4.31;93.33;102553.81;5085522;28;20234;-78
2022/01/18 00:20:53;;;;;;;21.53;3.03;;;;;;;4.32;93.48;102540.09;5093666;28;20263;-78
2022/01/18 00:23:20;;;;;;;17.60;3.20;;;;;;;4.34;93.52;102541.03;5086869;28;20226;-79
2022/01/18 00:25:50;;;;;;;17.87;2.70;;;;;;;4.30;93.95;102539.16;5085636;28;20666;-80
2022/01/18 00:28:17;;;;;;;19.37;3.90;;;;;;;4.28;93.94;102521.78;5087277;28;20581;-80
2022/01/18 00:31:28;;;;;;;15.80;3.73;;;;;;;4.30;94.26;102520.13;5089645;28;20663;-78
2022/01/18 00:34:02;;;;;;;11.80;2.77;;;;;;;4.31;93.89;102514.16;5090025;28;20592;-78
2022/01/18 00:36:37;;;;;;;17.70;3.53;;;;;;;4.33;94.46;102528.03;5088897;28;20196;-79
2022/01/18 00:39:06;;;;;;;20.03;3.67;;;;;;;4.36;94.28;102526.47;5089921;28;20269;-77
2022/01/18 00:41:33;;;;;;;21.43;4.03;;;;;;;4.35;94.42;102526.41;5090084;28;20258;-80
2022/01/18 00:43:59;;;;;;;20.30;3.23;;;;;;;4.36;94.57;102521.28;5091096;28;20236;-79
2022/01/18 00:46:27;;;;;;;13.33;3.23;;;;;;;4.37;94.59;102524.75;5091069;28;20677;-80
2022/01/18 00:48:55;;;;;;;14.43;2.87;;;;;;;4.32;94.90;102518.50;5090700;28;20623;-78
2022/01/18 00:51:22;;;;;;;12.77;2.73;;;;;;;4.32;94.99;102511.66;5090509;28;20712;-79
2022/01/18 00:53:49;;;;;;;15.07;3.00;;;;;;;4.30;96.07;102507.22;5091284;28;20207;-80
2022/01/18 00:56:23;;;;;;;23.63;3.83;;;;;;;4.20;96.32;102487.00;5090338;28;20249;-79
2022/01/18 00:58:51;;;;;;;19.77;3.10;;;;;;;4.15;97.39;102469.59;5090209;28;20241;-79
2022/01/18 01:01:19;;;;;;;23.90;4.13;;;;;;;4.14;98.57;102438.50;5089796;28;20208;-80
2022/01/18 01:03:47;;;;;;;17.77;3.53;;;;;;;4.10;99.81;102403.94;5090500;28;20235;-79
2022/01/18 01:06:14;;;;;;;18.93;3.57;;;;;;;4.07;100.00;102365.03;5090785;28;20208;-79
2022/01/18 01:08:41;;;;;;;15.33;3.13;;;;;;;4.04;100.00;102320.97;5090860;28;20224;-78
2022/01/18 01:11:10;;;;;;;21.17;4.10;;;;;;;4.09;100.00;102297.94;5090002;28;20253;-79
2022/01/18 01:13:41;;;;;;;16.60;4.10;;;;;;;4.06;100.00;102288.34;5088904;28;20921;-78
2022/01/18 01:16:22;;;;;;;16.43;3.17;;;;;;;4.00;100.00;102288.09;5088943;28;20211;-77
2022/01/18 01:19:06;;;;;;;18.03;4.20;;;;;;;3.97;100.00;102275.09;5088333;28;20220;-77
2022/01/18 01:33:08;;;;;;;16.90;3.73;;;;;;;4.05;100.00;102257.28;5088577;28;20239;-78
2022/01/18 01:35:46;;;;;;;12.17;3.30;;;;;;;4.07;100.00;102248.75;5087586;28;20215;-77
2022/01/18 01:44:00;;;;;;;13.30;4.00;;;;;;;4.20;100.00;102257.84;5087495;28;20254;-78
2022/01/18 01:46:28;;;;;;;18.67;3.97;;;;;;;4.18;100.00;102262.06;5088218;28;20196;-79
2022/01/18 01:48:57;;;;;;;12.30;3.73;;;;;;;4.18;100.00;102254.31;5087843;28;20430;-77
2022/01/18 01:51:29;;;;;;;16.33;4.67;;;;;;;4.14;100.00;102239.53;5086995;28;20214;-77
2022/01/18 01:53:56;;;;;;;23.23;4.33;;;;;;;4.19;100.00;102240.56;5088460;28;20667;-79
2022/01/18 01:56:22;;;;;;;18.50;6.10;;;;;;;4.18;100.00;102223.28;5087951;28;20249;-79
2022/01/18 01:58:49;;;;;;;11.40;4.30;;;;;;;4.18;100.00;102225.88;5088392;28;20219;-77
2022/01/18 02:01:16;;;;;;;16.83;4.77;;;;;;;4.20;100.00;102218.19;5087538;28;20204;-78
2022/01/18 02:03:42;;;;;;;12.57;5.20;;;;;;;4.17;100.00;102231.88;5087508;28;20749;-77
2022/01/18 02:06:09;;;;;;;12.77;4.80;;;;;;;4.27;100.00;102220.19;5088203;28;20208;-78
2022/01/18 02:08:37;;;;;;;14.47;4.83;;;;;;;4.25;100.00;102222.69;5088266;28;20305;-78
2022/01/18 02:11:03;;;;;;;13.60;3.87;;;;;;;4.21;100.00;102223.41;5087077;28;20212;-78
2022/01/18 02:13:32;;;;;;;16.63;4.93;;;;;;;4.25;100.00;102227.00;5087268;28;20249;-79
2022/01/18 02:16:18;;;;;;;12.53;4.57;;;;;;;4.25;100.00;102234.75;5088858;28;20196;-78
2022/01/18 02:21:48;;;;;;;9.77;3.30;;;;;;;4.16;100.00;102246.53;5086701;28;20257;-78
2022/01/18 02:24:17;;;;;;;16.93;3.73;;;;;;;4.15;100.00;102255.09;5087722;28;20212;-78
2022/01/18 02:26:43;;;;;;;9.97;3.07;;;;;;;4.12;100.00;102262.75;5087933;28;20230;-78
2022/01/18 02:29:11;;;;;;;11.37;2.67;;;;;;;4.11;100.00;102267.84;5087518;28;20237;-78
2022/01/18 02:31:38;;;;;;;13.93;4.00;;;;;;;4.13;100.00;102274.81;5087315;28;20208;-78
2022/01/18 02:34:07;;;;;;;4.77;2.13;;;;;;;4.12;100.00;102277.34;5087565;28;20212;-77
2022/01/18 02:36:35;;;;;;;13.43;3.10;;;;;;;4.11;100.00;102285.94;5085886;28;20859;-77
2022/01/18 02:39:03;;;;;;;11.23;2.03;;;;;;;4.10;100.00;102302.25;5087251;28;20223;-78
2022/01/18 02:41:31;;;;;;;9.17;2.57;;;;;;;4.11;100.00;102299.72;5087303;28;20208;-78
2022/01/18 02:43:59;;;;;;;10.23;2.70;;;;;;;4.11;100.00;102306.63;5087714;28;20223;-79
2022/01/18 02:46:27;;;;;;;10.60;2.73;;;;;;;4.08;100.00;102312.53;5087021;28;20609;-79
2022/01/18 02:48:54;;;;;;;8.13;2.53;;;;;;;4.12;100.00;102301.50;5087413;28;20253;-77
2022/01/18 02:51:21;;;;;;;9.20;3.03;;;;;;;4.13;100.00;102303.25;5086015;28;20208;-78
2022/01/18 02:54:01;;;;;;;4.47;2.30;;;;;;;4.14;100.00;102304.13;5087528;28;20215;-78
2022/01/18 02:56:30;;;;;;;6.43;2.60;;;;;;;4.11;100.00;102299.72;5087388;28;20196;-78
2022/01/18 02:59:06;;;;;;;7.50;2.30;;;;;;;4.10;100.00;102298.00;5086931;28;20463;-78
2022/01/18 03:04:17;;;;;;;9.80;3.03;;;;;;;4.17;100.00;102281.88;5086659;28;20365;-78
2022/01/18 03:06:43;;;;;;;9.90;2.93;;;;;;;4.16;100.00;102280.13;5087436;28;20208;-78
2022/01/18 03:09:11;;;;;;;9.97;2.77;;;;;;;4.10;100.00;102277.31;5086635;28;20247;-78
2022/01/18 03:11:38;;;;;;;17.13;4.10;;;;;;;4.05;100.00;102270.22;5087281;28;20662;-78
2022/01/18 03:14:04;;;;;;;7.23;2.50;;;;;;;4.01;100.00;102256.28;5086738;28;20273;-78
2022/01/18 03:16:31;;;;;;;14.33;2.73;;;;;;;3.98;100.00;102246.72;5087365;28;20265;-79
2022/01/18 03:18:57;;;;;;;13.87;2.93;;;;;;;3.97;100.00;102242.38;5086720;28;20253;-78
2022/01/18 03:21:24;;;;;;;15.83;2.87;;;;;;;4.01;100.00;102227.88;5086179;28;20215;-78
2022/01/18 03:23:54;;;;;;;10.63;2.30;;;;;;;4.01;100.00;102229.59;5086662;28;20227;-79
2022/01/18 03:26:31;;;;;;;9.30;2.77;;;;;;;3.97;100.00;102233.75;5086095;28;20193;-78
2022/01/18 03:28:56;;;;;;;14.83;3.30;;;;;;;3.99;100.00;102226.94;5085375;28;20802;-77
2022/01/18 03:31:23;;;;;;;11.93;2.87;;;;;;;4.00;100.00;102225.22;5085873;28;20212;-78
2022/01/18 03:33:49;;;;;;;9.23;3.07;;;;;;;3.97;100.00;102219.13;5085671;28;20288;-78
2022/01/18 03:36:16;;;;;;;7.03;2.20;;;;;;;3.97;100.00;102213.94;5085070;28;20631;-78
2022/01/18 03:38:42;;;;;;;14.83;2.80;;;;;;;3.98;100.00;102214.81;5085512;28;20246;-78
2022/01/18 03:41:09;;;;;;;11.13;2.70;;;;;;;3.97;100.00;102206.19;5085051;28;20234;-77
2022/01/18 03:43:38;;;;;;;9.10;2.20;;;;;;;3.98;100.00;102209.66;5084920;28;20215;-77
2022/01/18 03:46:05;;;;;;;8.40;2.67;;;;;;;4.00;100.00;102214.88;5085499;28;20212;-79
2022/01/18 03:48:34;;;;;;;7.27;2.10;;;;;;;4.02;100.00;102216.69;5085463;28;20274;-77
2022/01/18 03:51:02;;;;;;;10.07;2.93;;;;;;;4.07;100.00;102211.72;5084723;28;20748;-78
2022/01/18 03:53:29;;;;;;;11.87;2.50;;;;;;;4.12;100.00;102210.16;5085635;28;20200;-78
2022/01/18 03:55:55;;;;;;;16.77;2.70;;;;;;;4.15;100.00;102220.63;5085757;28;20200;-77
2022/01/18 03:58:22;;;;;;;9.80;2.67;;;;;;;4.17;100.00;102217.25;5085497;28;20216;-78
2022/01/18 04:00:50;;;;;;;8.83;2.50;;;;;;;4.19;100.00;102217.31;5085152;28;20227;-78
2022/01/18 04:03:17;;;;;;;8.40;2.30;;;;;;;4.19;100.00;102219.91;5084957;28;20725;-78
2022/01/18 04:05:44;;;;;;;6.90;2.37;;;;;;;4.21;100.00;102219.97;5084697;28;20224;-77
2022/01/18 04:08:10;;;;;;;8.23;3.27;;;;;;;4.18;100.00;102228.47;5084924;28;20231;-78
2022/01/18 04:10:36;;;;;;;11.70;3.13;;;;;;;4.23;100.00;102220.91;5084564;28;20674;-78
2022/01/18 04:13:03;;;;;;;16.27;3.53;;;;;;;4.38;100.00;102234.38;5085264;28;20817;-78
2022/01/18 04:15:31;;;;;;;8.57;2.80;;;;;;;4.40;100.00;102231.81;5084658;28;20215;-79
2022/01/18 04:18:21;;;;;;;7.57;2.90;;;;;;;4.43;100.00;102243.16;5085597;28;20267;-78
2022/01/18 04:29:01;;;;;;;9.97;3.10;;;;;;;4.33;100.00;102260.03;5084461;28;20262;-78
2022/01/18 04:31:29;;;;;;;13.90;3.40;;;;;;;4.41;100.00;102264.63;5083836;28;20548;-77
2022/01/18 04:33:57;;;;;;;5.37;3.60;;;;;;;4.36;100.00;102272.19;5084769;28;20196;-78
2022/01/18 04:36:26;;;;;;;8.17;3.10;;;;;;;4.35;100.00;102265.28;5084454;28;20200;-79
2022/01/18 04:38:52;;;;;;;5.93;3.40;;;;;;;4.36;100.00;102265.34;5084845;28;20227;-78
2022/01/18 04:41:25;;;;;;;6.37;2.63;;;;;;;4.41;100.00;102273.25;5084284;28;20208;-78
2022/01/18 04:44:06;;;;;;;10.47;3.10;;;;;;;4.38;100.00;102268.84;5084767;28;20677;-78
2022/01/18 04:49:18;;;;;;;5.83;3.43;;;;;;;4.24;100.00;102258.84;5084341;28;20246;-78
2022/01/18 04:51:46;;;;;;;6.50;3.30;;;;;;;4.23;100.00;102254.50;5083616;28;20257;-77
2022/01/18 04:54:14;;;;;;;6.13;3.60;;;;;;;4.22;100.00;102247.56;5083902;28;20225;-77
2022/01/18 04:59:24;;;;;;;10.07;4.40;;;;;;;4.18;100.00;102233.63;5082440;28;20771;-78
2022/01/18 05:01:51;;;;;;;7.73;4.17;;;;;;;4.17;100.00;102226.72;5084390;28;20204;-77
2022/01/18 05:04:19;;;;;;;9.67;5.30;;;;;;;4.24;100.00;102236.47;5084197;28;20779;-78
2022/01/18 05:06:45;;;;;;;5.77;4.60;;;;;;;4.21;100.00;102228.59;5084452;28;20196;-78
2022/01/18 05:09:12;;;;;;;10.93;4.63;;;;;;;4.25;100.00;102239.94;5084278;28;20224;-78
2022/01/18 05:11:47;;;;;;;8.33;4.30;;;;;;;4.30;100.00;102239.28;5084519;28;20227;-76
2022/01/18 05:14:22;;;;;;;7.57;3.90;;;;;;;4.32;100.00;102245.38;5085688;28;20277;-78
2022/01/18 05:16:56;;;;;;;5.97;4.00;;;;;;;4.42;100.00;102256.03;5089063;28;20922;-78
2022/01/18 05:19:27;;;;;;;13.03;4.47;;;;;;;4.40;100.00;102258.59;5088640;28;20224;-77
2022/01/18 05:24:37;;;;;;;7.93;5.00;;;;;;;4.43;100.00;102271.59;5088141;28;20599;-78
2022/01/18 05:27:04;;;;;;;7.80;4.53;;;;;;;4.47;100.00;102278.63;5088813;28;20207;-78
2022/01/18 05:29:31;;;;;;;5.80;4.20;;;;;;;4.48;100.00;102282.09;5087567;28;21001;-78
2022/01/18 05:31:57;;;;;;;5.23;3.70;;;;;;;4.44;100.00;102286.31;5088259;28;20208;-77
2022/01/18 05:34:25;;;;;;;7.17;4.27;;;;;;;4.45;100.00;102282.00;5088915;28;20265;-77
2022/01/18 05:36:52;;;;;;;9.43;4.60;;;;;;;4.38;100.00;102286.97;5087862;28;20200;-78
2022/01/18 05:39:18;;;;;;;10.47;4.30;;;;;;;4.37;100.00;102286.91;5087677;28;20231;-76
2022/01/18 05:41:46;;;;;;;8.20;4.40;;;;;;;4.31;100.00;102289.25;5088150;28;20270;-77
2022/01/18 05:44:12;;;;;;;10.17;5.03;;;;;;;4.30;100.00;102293.56;5087228;28;20208;-80
2022/01/18 05:46:39;;;;;;;8.67;4.47;;;;;;;4.34;100.00;102300.59;5087492;28;20200;-77
2022/01/18 05:49:06;;;;;;;9.20;4.97;;;;;;;4.33;100.00;102301.41;5086797;28;20273;-78
2022/01/18 05:51:36;;;;;;;15.30;5.23;;;;;;;4.34;100.00;102307.44;5087294;28;20204;-77
2022/01/18 05:54:03;;;;;;;11.67;4.80;;;;;;;4.39;100.00;102313.69;5087319;28;20211;-78
2022/01/18 05:56:30;;;;;;;11.53;4.90;;;;;;;4.40;100.00;102315.47;5087489;28;21105;-78
2022/01/18 05:59:01;;;;;;;11.93;4.27;;;;;;;4.53;100.00;102322.81;5087500;28;20277;-77
2022/01/18 06:01:33;;;;;;;8.40;4.63;;;;;;;4.54;100.00;102329.75;5087560;28;20200;-78
2022/01/18 06:04:11;;;;;;;12.30;4.73;;;;;;;4.54;100.00;102331.47;5088180;28;20201;-78
2022/01/18 06:09:23;;;;;;;9.67;4.40;;;;;;;4.48;100.00;102349.31;5086714;28;20312;-77
2022/01/18 06:11:49;;;;;;;7.03;4.80;;;;;;;4.41;100.00;102342.19;5088003;28;20612;-77
2022/01/18 06:14:16;;;;;;;6.87;4.70;;;;;;;4.37;100.00;102343.78;5086617;28;20264;-77
2022/01/18 06:16:42;;;;;;;5.67;4.87;;;;;;;4.45;100.00;102344.06;5087274;28;21326;-78
2022/01/18 06:19:09;;;;;;;19.90;6.83;;;;;;;4.54;100.00;102347.00;5087491;28;20220;-77
2022/01/18 06:21:35;;;;;;;11.67;6.03;;;;;;;4.56;100.00;102355.69;5086748;28;20222;-77
2022/01/18 06:24:03;;;;;;;12.27;5.17;;;;;;;4.67;100.00;102354.34;5088293;28;20674;-78
2022/01/18 06:26:30;;;;;;;6.77;4.63;;;;;;;4.63;100.00;102362.81;5087302;28;20277;-78
2022/01/18 06:28:58;;;;;;;7.43;5.07;;;;;;;4.68;100.00;102365.59;5087708;28;20294;-78
2022/01/18 06:31:24;;;;;;;12.00;5.70;;;;;;;4.69;100.00;102372.53;5087348;28;20226;-78
2022/01/18 06:33:51;;;;;;;14.07;5.50;;;;;;;4.63;100.00;102378.34;5087004;28;20471;-78
2022/01/18 06:36:17;;;;;;;12.07;5.63;;;;;;;4.56;100.00;102366.91;5087172;28;20208;-78
2022/01/18 06:38:43;;;;;;;8.53;5.03;;;;;;;4.62;100.00;102366.25;5088161;28;20228;-78
2022/01/18 06:41:11;;;;;;;10.07;5.70;;;;;;;4.63;100.00;102364.53;5086436;28;20265;-78
2022/01/18 06:43:38;;;;;;;17.33;6.13;;;;;;;4.69;100.00;102380.28;5086408;28;20208;-78
2022/01/18 06:46:04;;;;;;;12.33;6.00;;;;;;;4.71;100.00;102368.28;5087289;28;20254;-78
2022/01/18 06:48:31;;;;;;;9.17;6.33;;;;;;;4.66;100.00;102375.88;5087323;28;20220;-77
2022/01/18 06:50:58;;;;;;;17.30;6.67;;;;;;;4.69;100.00;102370.81;5083550;28;20214;-78
2022/01/18 06:53:24;;;;;;;13.43;6.50;;;;;;;4.65;100.00;102371.53;5086289;28;20196;-79
2022/01/18 06:55:54;;;;;;;6.80;6.17;;;;;;;4.58;100.00;102372.16;5087044;28;20212;-78
2022/01/18 06:58:21;;;;;;;10.37;7.00;;;;;;;4.60;100.00;102375.66;5086177;28;20287;-77
2022/01/18 07:00:48;;;;;;;13.43;6.93;;;;;;;4.61;100.00;102372.25;5086262;28;20260;-78
2022/01/18 07:03:15;;;;;;;12.60;8.10;;;;;;;4.60;100.00;102359.25;5086768;28;20292;-77
2022/01/18 07:05:42;;;;;;;13.17;7.23;;;;;;;4.60;100.00;102364.41;5087171;28;20721;-79
2022/01/18 07:08:08;;;;;;;16.77;7.03;;;;;;;4.57;100.00;102363.47;5086248;28;20235;-77
2022/01/18 07:10:35;;;;;;;11.50;6.60;;;;;;;4.54;100.00;102365.97;5086029;28;20204;-78
2022/01/18 07:13:01;;;;;;;11.00;6.90;;;;;;;4.53;100.00;102360.72;5087816;28;20204;-80
2022/01/18 07:15:29;;;;;;;13.77;7.93;;;;;;;4.57;100.00;102358.31;5086757;28;21292;-77
2022/01/18 07:17:55;;;;;;;15.70;7.43;;;;;;;4.57;100.00;102357.44;5085791;28;20204;-78
2022/01/18 07:20:22;;;;;;;9.33;7.47;;;;;;;4.54;100.00;102358.22;5086005;28;20204;-79
2022/01/18 07:22:48;;;;;;;11.37;7.40;;;;;;;4.55;100.00;102359.97;5085386;28;20208;-77
2022/01/18 07:25:17;;;;;;;19.33;7.43;;;;;;;4.54;100.00;102367.69;5085107;28;20228;-77
2022/01/18 07:27:43;;;;;;;10.23;7.20;;;;;;;4.55;100.00;102369.44;5084270;28;20218;-76
2022/01/18 07:30:10;;;;;;;14.67;7.50;;;;;;;4.57;100.00;102367.78;5084463;28;20208;-78
2022/01/18 07:32:38;;;;;;;11.40;6.30;;;;;;;4.56;100.00;102373.78;5085932;28;20215;-79
2022/01/18 07:35:07;;;;;;;9.50;7.10;;;;;;;4.54;100.00;102368.56;5085759;28;20212;-77
2022/01/18 07:37:33;;;;;;;11.23;6.63;;;;;;;4.55;100.00;102370.31;5083808;28;20211;-79
2022/01/18 07:40:00;;;;;;;11.63;6.80;;;;;;;4.57;100.00;102370.38;5084012;28;20263;-77
2022/01/18 07:42:26;;;;;;;7.97;5.63;;;;;;;4.56;100.00;102368.63;5084400;28;20232;-77
2022/01/18 07:44:53;;;;;;;14.37;7.30;;;;;;;4.58;100.00;102364.38;5083940;28;20204;-78
2022/01/18 07:47:20;;;;;;;10.60;5.97;;;;;;;4.56;100.00;102372.06;5084770;28;20269;-77
2022/01/18 07:49:48;;;;;;;7.93;5.80;;;;;;;4.57;100.00;102370.38;5082019;28;20223;-79
2022/01/18 07:52:15;;;;;;;17.37;6.23;;;;;;;4.56;100.00;102369.50;5085532;28;20200;-77
2022/01/18 07:54:42;;;;;;;7.63;5.77;;;;;;;4.60;100.00;102369.59;5083566;28;20234;-76
2022/01/18 07:57:08;;;;;;;9.63;5.50;;;;;;;4.60;100.00;102367.91;5083845;28;20259;-78
2022/01/18 07:59:35;;;;;;;9.53;6.30;;;;;;;4.63;100.00;102368.00;5083282;28;20223;-79
2022/01/18 08:02:01;;;;;;;8.33;6.40;;;;;;;4.63;100.00;102375.75;5084305;28;20265;-77
2022/01/18 08:04:28;;;;;;;7.50;6.47;;;;;;;4.65;100.00;102375.81;5083997;28;20264;-77
2022/01/18 08:06:55;;;;;;;11.97;8.00;;;;;;;4.67;100.00;102377.63;5083546;28;20219;-77
2022/01/18 08:09:22;;;;;;;12.77;6.63;;;;;;;4.72;100.00;102377.81;5083292;28;20224;-77
2022/01/18 08:11:51;;;;;;;9.40;6.00;;;;;;;4.71;100.00;102383.81;5083768;28;20208;-77
2022/01/18 08:14:17;;;;;;;7.50;6.00;;;;;;;4.77;100.00;102387.47;5083480;28;20212;-77
2022/01/18 08:16:49;;;;;;;11.13;6.70;;;;;;;4.78;100.00;102391.84;5084340;28;20257;-79
2022/01/18 08:19:17;;;;;;;8.17;5.73;;;;;;;4.78;100.00;102397.03;5084473;28;20809;-77
2022/01/18 08:21:43;;;;;;;9.13;6.07;;;;;;;4.82;100.00;102398.03;5083985;28;20204;-77
2022/01/18 08:24:11;;;;;;;12.33;6.77;;;;;;;4.87;100.00;102391.28;5084027;28;20212;-76
2022/01/18 08:26:38;;;;;;;9.10;6.20;;;;;;;4.92;100.00;102391.47;5084095;28;20228;-77
2022/01/18 08:29:04;;;;;;;8.23;6.77;;;;;;;4.98;100.00;102396.88;5085308;28;20236;-78
2022/01/18 08:31:30;;;;;;;10.30;7.43;;;;;;;5.10;100.00;102407.66;5084817;28;20284;-78
2022/01/18 08:33:57;;;;;;;9.70;7.37;;;;;;;5.11;100.00;102412.00;5085582;28;20627;-78
2022/01/18 08:36:23;;;;;;;65.87;36.07;;;;;;;5.08;100.00;102411.03;5084693;28;20780;-77
2022/01/18 08:38:49;;;;;;;35.57;25.93;;;;;;;5.06;100.00;102410.09;5083529;28;20247;-77
2022/01/18 08:41:17;;;;;;;17.97;13.27;;;;;;;5.04;100.00;102402.25;5083360;28;20204;-76
2022/01/18 08:43:44;;;;;;;15.80;10.37;;;;;;;4.97;100.00;102413.19;5084504;28;20258;-77
2022/01/18 08:46:10;;;;;;;15.10;9.50;;;;;;;4.92;100.00;102400.09;5084055;28;20228;-79
2022/01/18 08:48:37;;;;;;;15.47;9.60;;;;;;;4.95;100.00;102404.50;5084103;28;20223;-76
2022/01/18 08:51:04;;;;;;;14.47;10.50;;;;;;;4.94;100.00;102392.41;5087758;28;20240;-77
2022/01/18 08:53:30;;;;;;;19.07;10.43;;;;;;;4.96;100.00;102390.75;5087270;28;20199;-77
2022/01/18 08:55:56;;;;;;;21.00;11.77;;;;;;;5.05;100.00;102396.22;5088388;28;20254;-76
2022/01/18 08:58:26;;;;;;;20.13;9.10;;;;;;;5.09;100.00;102387.75;5088883;28;20220;-80
2022/01/18 09:00:52;;;;;;;16.47;10.57;;;;;;;5.09;100.00;102398.09;5088724;28;20667;-76
2022/01/18 09:03:18;;;;;;;18.23;10.10;;;;;;;5.11;100.00;102398.16;5087775;28;20212;-78
2022/01/18 09:05:45;;;;;;;14.27;9.93;;;;;;;5.25;100.00;102402.13;5087449;28;20271;-77
2022/01/18 09:08:13;;;;;;;15.50;9.83;;;;;;;5.20;100.00;102401.09;5088865;28;20230;-79
2022/01/18 09:10:40;;;;;;;12.83;9.57;;;;;;;5.22;100.00;102401.16;5087922;28;20263;-78
2022/01/18 09:13:06;;;;;;;19.73;9.93;;;;;;;5.29;100.00;102406.59;5089881;28;20269;-78
2022/01/18 09:15:34;;;;;;;21.57;9.50;;;;;;;5.20;100.00;102413.16;5087291;28;20685;-77
2022/01/18 09:18:00;;;;;;;19.53;9.83;;;;;;;5.15;100.00;102413.88;5088685;28;20232;-77
2022/01/18 09:20:27;;;;;;;15.80;9.63;;;;;;;5.18;100.00;102420.88;5087656;28;20196;-78
2022/01/18 09:22:53;;;;;;;21.47;10.53;;;;;;;5.19;100.00;102422.59;5088031;28;20725;-77
2022/01/18 09:25:23;;;;;;;14.00;10.20;;;;;;;5.23;100.00;102421.88;5088438;28;20211;-80
2022/01/18 09:27:50;;;;;;;23.70;9.73;;;;;;;5.28;100.00;102428.13;5088299;28;20293;-80
2022/01/18 09:30:17;;;;;;;26.43;10.00;;;;;;;5.42;100.00;102430.31;5090072;28;20204;-79
2022/01/18 09:32:47;;;;;;;16.77;9.40;;;;;;;5.51;100.00;102436.69;5088251;28;20208;-78
2022/01/18 09:35:14;;;;;;;18.37;9.37;;;;;;;5.55;100.00;102440.28;5086738;28;20213;-79
2022/01/18 09:37:41;;;;;;;17.63;8.97;;;;;;;5.56;100.00;102442.03;5087314;28;20200;-79
2022/01/18 09:40:09;;;;;;;19.37;9.27;;;;;;;5.58;100.00;102451.59;5088262;28;20208;-78
2022/01/18 09:42:39;;;;;;;19.37;8.93;;;;;;;5.56;100.00;102448.06;5087608;28;20208;-77
2022/01/18 09:45:09;;;;;;;23.00;9.70;;;;;;;5.54;100.00;102459.22;5087803;28;20215;-79
2022/01/18 09:47:35;;;;;;;26.07;9.63;;;;;;;5.56;100.00;102460.16;5087817;28;21277;-77
2022/01/18 09:50:05;;;;;;;28.97;10.30;;;;;;;5.72;100.00;102453.78;5087331;28;20224;-79
2022/01/18 09:52:32;;;;;;;29.07;11.17;;;;;;;5.71;100.00;102468.44;5088496;28;20756;-79
2022/01/18 09:54:58;;;;;;;39.13;12.30;;;;;;;5.76;100.00;102473.78;5087996;28;20618;-78
2022/01/18 09:57:24;;;;;;;29.70;9.93;;;;;;;5.76;100.00;102482.44;5089181;28;20200;-79
2022/01/18 09:59:51;;;;;;;28.27;11.23;;;;;;;5.84;100.00;102485.28;5086266;28;20228;-78
2022/01/18 10:02:19;;;;;;;29.37;11.67;;;;;;;5.86;100.00;102487.94;5087567;28;20203;-78
2022/01/18 10:04:48;;;;;;;23.10;11.60;;;;;;;5.88;100.00;102497.50;5086807;28;20208;-79
2022/01/18 10:07:16;;;;;;;23.73;10.73;;;;;;;5.92;100.00;102509.75;5086304;28;20233;-79
2022/01/18 10:09:42;;;;;;;29.93;11.13;;;;;;;6.09;100.00;102510.34;5086377;28;20289;-78
2022/01/18 10:12:11;;;;;;;21.37;11.27;;;;;;;6.02;100.00;102513.56;5086386;28;20281;-78
2022/01/18 10:14:40;;;;;;;24.03;10.03;;;;;;;5.91;100.00;102522.69;5085788;28;20307;-77
2022/01/18 10:17:09;;;;;;;28.47;10.30;;;;;;;6.04;100.00;102524.84;5086719;28;20208;-77
2022/01/18 10:19:42;;;;;;;21.17;10.73;;;;;;;5.97;100.00;102530.69;5085853;28;20230;-78
2022/01/18 10:22:11;;;;;;;18.70;10.33;;;;;;;5.98;100.00;102529.84;5085351;28;20471;-77
2022/01/18 10:24:39;;;;;;;19.90;9.63;;;;;;;6.04;100.00;102529.16;5085328;28;21089;-76
2022/01/18 10:27:07;;;;;;;23.20;11.30;;;;;;;6.12;100.00;102536.34;5086228;28;20226;-78
2022/01/18 10:29:37;;;;;;;23.03;10.47;;;;;;;6.27;100.00;102540.31;5085040;28;20224;-77
2022/01/18 10:32:12;;;;;;;20.43;10.47;;;;;;;6.30;100.00;102543.91;5085598;28;20299;-78
2022/01/18 10:35:03;;;;;;;24.30;9.80;;;;;;;6.30;100.00;102556.88;5086983;28;20291;-77
2022/01/18 10:37:29;;;;;;;23.43;9.67;;;;;;;6.32;100.00;102575.03;5085555;28;20209;-77
2022/01/18 10:39:59;;;;;;;19.03;8.83;;;;;;;6.44;100.00;102587.53;5087135;28;20248;-77
2022/01/18 10:42:30;;;;;;;19.87;8.87;;;;;;;6.40;100.00;102607.31;5087453;28;20548;-77
2022/01/18 10:45:03;;;;;;;17.30;7.83;;;;;;;6.40;100.00;102602.13;5086460;28;20202;-78
2022/01/18 10:47:30;;;;;;;18.83;8.67;;;;;;;6.41;100.00;102626.38;5086888;28;20230;-77
2022/01/18 10:49:58;;;;;;;20.40;9.03;;;;;;;6.52;100.00;102625.00;5085365;28;20696;-78
2022/01/18 10:52:28;;;;;;;16.73;8.43;;;;;;;6.47;100.00;102635.22;5084937;28;20205;-76
2022/01/18 10:54:57;;;;;;;22.33;10.10;;;;;;;6.45;100.00;102628.22;5084631;28;20578;-77
2022/01/18 10:57:27;;;;;;;18.70;9.80;;;;;;;6.59;100.00;102626.97;5085491;28;20295;-77
2022/01/18 10:59:57;;;;;;;19.43;10.03;;;;;;;6.72;100.00;102623.94;5085044;28;20355;-77
2022/01/18 11:02:24;;;;;;;20.37;8.83;;;;;;;6.76;100.00;102632.72;5085841;28;20214;-78
2022/01/18 11:04:51;;;;;;;20.53;9.77;;;;;;;6.69;100.00;102654.09;5084874;28;20870;-77
2022/01/18 11:07:20;;;;;;;22.53;8.70;;;;;;;6.59;100.00;102660.69;5084080;28;20290;-76
2022/01/18 11:09:47;;;;;;;23.43;9.10;;;;;;;6.56;100.00;102660.59;5084295;28;20226;-77
2022/01/18 11:12:15;;;;;;;14.13;8.07;;;;;;;6.51;100.00;102664.75;5084561;28;20209;-79
2022/01/18 11:14:46;;;;;;;17.50;8.80;;;;;;;6.48;100.00;102651.66;5085693;28;20200;-77
2022/01/18 11:17:21;;;;;;;20.57;8.63;;;;;;;6.51;100.00;102641.41;5085785;28;20254;-77
2022/01/18 11:19:48;;;;;;;25.73;9.67;;;;;;;6.60;100.00;102641.72;5084189;28;20225;-77
2022/01/18 11:22:15;;;;;;;21.63;8.47;;;;;;;6.61;100.00;102650.38;5085111;28;20687;-78
2022/01/18 11:24:43;;;;;;;15.67;7.93;;;;;;;6.60;100.00;102667.66;5083752;28;20286;-78
2022/01/18 11:27:12;;;;;;;15.83;8.50;;;;;;;6.55;100.00;102664.03;5085592;28;20224;-78
2022/01/18 11:29:41;;;;;;;16.23;8.37;;;;;;;6.66;100.00;102662.69;5084541;28;20332;-78
2022/01/18 11:32:10;;;;;;;17.40;7.90;;;;;;;6.61;100.00;102669.41;5084381;28;20261;-78
2022/01/18 11:34:55;;;;;;;16.60;8.00;;;;;;;6.63;100.00;102667.75;5084534;28;20592;-77
2022/01/18 11:37:29;;;;;;;30.63;8.47;;;;;;;6.62;100.00;102658.22;5086565;28;20201;-78
2022/01/18 11:39:59;;;;;;;24.80;8.33;;;;;;;6.61;100.00;102650.38;5085488;28;20226;-79
2022/01/18 11:42:42;;;;;;;17.13;7.57;;;;;;;6.45;100.00;102668.00;5086173;28;20280;-77
2022/01/18 11:45:32;;;;;;;21.77;7.57;;;;;;;6.38;100.00;102650.47;5084555;28;20253;-77
2022/01/18 11:48:01;;;;;;;18.23;8.63;;;;;;;6.47;100.00;102640.41;5084421;28;20232;-77
2022/01/18 11:50:28;;;;;;;21.30;8.17;;;;;;;6.42;100.00;102631.63;5084485;28;20202;-77
2022/01/18 11:53:15;;;;;;;15.53;7.77;;;;;;;6.23;100.00;102617.13;5083539;28;20675;-77
2022/01/18 11:55:45;;;;;;;14.13;8.43;;;;;;;6.24;100.00;102607.63;5083937;28;20199;-77
2022/01/18 11:58:12;;;;;;;24.10;9.10;;;;;;;6.16;100.00;102600.50;5083917;28;20251;-78
2022/01/18 12:00:52;;;;;;;17.87;8.53;;;;;;;6.21;100.00;102604.94;5083619;28;20214;-78
2022/01/18 12:03:20;;;;;;;16.63;9.50;;;;;;;6.28;100.00;102607.81;5083948;28;20258;-77
2022/01/18 12:05:47;;;;;;;17.77;8.00;;;;;;;6.31;100.00;102607.88;5083983;28;20205;-77
2022/01/18 12:08:36;;;;;;;17.50;8.30;;;;;;;6.29;100.00;102617.34;5083291;28;20235;-78
2022/01/18 12:11:05;;;;;;;17.43;7.50;;;;;;;6.37;100.00;102627.97;5083283;28;20287;-76